Drayden, Maryland
Current Conditions -  °F | °C
As of 10:53 PM on Friday 24 Oct 2014 (Local Time) from KNUI Reporting Station
Clear Clear  
Wind Chill: 57°   Ceiling: Unl
Heat Index: 57°   Visibility: 10mi
Dew Point: 36°   Wind: 5mph
Humidity: 45%   Direction: 330°NNW
Pressure: 29.94"   Gusts: NA
Location:  38.18°N, 76.48°W
Report Text: KNUI 250253Z AUTO 33004KT 10SM CLR 14/02 A2994 RMK AO2 SLP137 T01390022 $
Loading
Personal Weather Stations






























Interactive Weather Map
Tropical Storm Tracking
New forecast layout! Learn more

10-Day Weather Forecast

Advertisements
Track Severe Weather on mobile